createdAt,value
2019-05-06T00:00:34.076Z,72.53
2019-05-06T00:03:05.159Z,73.14
2019-05-06T00:05:35.573Z,73.67
2019-05-06T00:08:05.853Z,73.94
2019-05-06T00:10:36.933Z,74.33
2019-05-06T00:13:07.391Z,74.99
2019-05-06T00:15:37.814Z,75.10
2019-05-06T00:18:08.190Z,75.47
2019-05-06T00:20:38.932Z,75.43
2019-05-06T00:23:18.161Z,75.43
2019-05-06T00:26:05.859Z,75.40
2019-05-06T00:28:44.499Z,75.49
2019-05-06T00:31:16.694Z,75.59
2019-05-06T00:33:47.394Z,75.69
2019-05-06T00:36:17.728Z,75.81
2019-05-06T00:38:54.055Z,75.98
2019-05-06T00:41:28.972Z,76.33
2019-05-06T00:43:59.603Z,76.50
2019-05-06T00:46:30.058Z,76.64
2019-05-06T00:49:00.628Z,76.76
2019-05-06T00:51:30.925Z,77.02
2019-05-06T00:54:07.089Z,77.21
2019-05-06T00:56:37.659Z,77.66
2019-05-06T00:59:08.667Z,78.03
2019-05-06T01:01:38.968Z,78.11
2019-05-06T01:04:09.722Z,78.22
2019-05-06T01:06:40.028Z,78.36
2019-05-06T01:09:16.393Z,78.39
2019-05-06T01:11:48.411Z,78.51
2019-05-06T01:14:27.346Z,78.66
2019-05-06T01:16:57.642Z,78.93
2019-05-06T01:19:28.211Z,79.03
2019-05-06T01:21:58.836Z,78.78
2019-05-06T01:24:29.412Z,78.54
2019-05-06T01:27:00.696Z,78.62
2019-05-06T01:29:32.167Z,78.85
2019-05-06T01:32:03.703Z,79.10
2019-05-06T01:34:37.324Z,79.44
2019-05-06T01:37:14.261Z,79.64
2019-05-06T01:40:04.495Z,79.81
2019-05-06T01:42:44.750Z,80.06
2019-05-06T01:45:15.000Z,79.96
2019-05-06T01:47:45.289Z,80.08
2019-05-06T01:50:15.681Z,79.99
2019-05-06T01:52:47.976Z,80.24
2019-05-06T01:55:18.250Z,80.31
2019-05-06T01:57:48.776Z,80.39
2019-05-06T02:00:19.532Z,80.38
2019-05-06T02:02:49.843Z,80.80
2019-05-06T02:05:20.430Z,80.64
2019-05-06T02:07:50.815Z,80.45
2019-05-06T02:10:21.090Z,80.35
2019-05-06T02:12:51.394Z,80.47
2019-05-06T02:15:23.897Z,80.83
2019-05-06T02:17:55.120Z,80.99
2019-05-06T02:20:25.776Z,81.23
2019-05-06T02:23:17.286Z,81.46
2019-05-06T02:25:50.552Z,81.59
2019-05-06T02:28:23.606Z,81.81
2019-05-06T02:31:05.499Z,82.10
2019-05-06T02:33:55.834Z,81.95
2019-05-06T02:36:58.086Z,81.93
2019-05-06T02:39:29.123Z,82.19
2019-05-06T02:41:59.400Z,82.58
2019-05-06T02:44:33.636Z,82.53
2019-05-06T02:47:23.310Z,82.36
2019-05-06T02:49:57.192Z,82.33
2019-05-06T02:52:27.646Z,82.24
2019-05-06T02:54:58.217Z,82.50
2019-05-06T02:57:28.497Z,82.51
2019-05-06T02:59:59.192Z,82.56
2019-05-06T03:02:41.935Z,82.80
2019-05-06T03:05:04.238Z,82.80
2019-05-06T03:07:37.799Z,82.76
2019-05-06T03:10:12.778Z,82.79
2019-05-06T03:12:43.021Z,82.94
2019-05-06T03:15:16.614Z,83.23
2019-05-06T03:17:46.787Z,83.32
2019-05-06T03:20:32.850Z,82.79
2019-05-06T03:23:06.538Z,82.79
2019-05-06T03:25:39.191Z,82.70
2019-05-06T03:28:09.706Z,82.44
2019-05-06T03:30:45.337Z,82.37
2019-05-06T03:33:37.259Z,82.46
2019-05-06T03:35:57.729Z,82.68
2019-05-06T03:38:15.953Z,82.87
2019-05-06T03:40:46.547Z,82.97
2019-05-06T03:43:16.870Z,82.97
2019-05-06T03:46:09.390Z,83.31
2019-05-06T03:48:44.277Z,83.45
2019-05-06T03:51:13.840Z,83.08
2019-05-06T03:53:45.693Z,82.67
2019-05-06T03:56:20.059Z,82.24
2019-05-06T03:58:53.612Z,81.71
2019-05-06T04:01:24.354Z,81.06
2019-05-06T04:03:57.129Z,80.34
2019-05-06T04:06:27.245Z,79.70
2019-05-06T04:08:58.167Z,79.12
2019-05-06T04:11:28.702Z,78.53
2019-05-06T04:14:02.845Z,78.14
2019-05-06T04:16:44.385Z,77.65
2019-05-06T04:19:28.616Z,77.44
2019-05-06T04:22:12.918Z,76.95
2019-05-06T04:24:53.855Z,76.82
2019-05-06T04:27:33.484Z,76.83
2019-05-06T04:30:05.707Z,76.91
2019-05-06T04:32:36.087Z,76.80
2019-05-06T04:35:07.740Z,76.66
2019-05-06T04:37:38.023Z,76.47
2019-05-06T04:40:08.610Z,76.12
2019-05-06T04:42:44.364Z,75.80
2019-05-06T04:45:17.477Z,75.31
2019-05-06T04:47:46.570Z,74.66
2019-05-06T04:50:16.919Z,74.51
2019-05-06T04:53:04.537Z,74.26
2019-05-06T04:55:35.643Z,74.09
2019-05-06T04:58:06.439Z,73.73
2019-05-06T05:00:38.653Z,73.48
2019-05-06T05:03:10.423Z,73.05
2019-05-06T05:05:44.892Z,72.70
2019-05-06T05:08:15.524Z,72.47
2019-05-06T05:11:04.794Z,72.15
2019-05-06T05:13:53.307Z,71.88
2019-05-06T05:16:42.887Z,71.74
2019-05-06T05:19:13.694Z,71.63
2019-05-06T05:21:44.182Z,71.40
2019-05-06T05:24:14.938Z,70.84
2019-05-06T05:26:47.160Z,70.36
2019-05-06T05:29:17.738Z,69.20
2019-05-06T05:31:48.116Z,69.20
2019-05-06T05:34:18.730Z,68.98
2019-05-06T05:36:48.986Z,68.64
2019-05-06T05:39:19.576Z,68.31
2019-05-06T05:41:52.130Z,68.08
2019-05-06T05:44:29.118Z,67.77
2019-05-06T05:46:59.963Z,67.30
2019-05-06T05:49:55.465Z,66.94
2019-05-06T05:52:26.032Z,65.83
2019-05-06T05:54:56.796Z,65.69
2019-05-06T05:57:28.220Z,65.16
2019-05-06T05:59:58.914Z,65.23
2019-05-06T06:02:33.258Z,65.20
2019-05-06T06:05:03.550Z,65.08
2019-05-06T06:07:35.319Z,65.39
2019-05-06T06:10:35.085Z,65.73
2019-05-06T06:13:06.172Z,66.19
2019-05-06T06:15:58.572Z,66.19
2019-05-06T06:18:43.298Z,66.64
2019-05-06T06:21:32.476Z,66.16
2019-05-06T06:24:17.822Z,67.20
2019-05-06T06:26:49.458Z,66.96
2019-05-06T06:29:20.064Z,66.49
2019-05-06T06:32:16.213Z,65.95
2019-05-06T06:35:14.568Z,64.57
2019-05-06T06:37:55.784Z,63.33
2019-05-06T06:40:28.246Z,61.70
2019-05-06T06:43:06.114Z,61.16
2019-05-06T06:45:36.838Z,61.17
2019-05-06T06:48:07.258Z,60.58
2019-05-06T06:50:37.831Z,59.88
2019-05-06T06:53:08.262Z,58.46
2019-05-06T06:55:42.562Z,57.80
2019-05-06T06:58:32.399Z,57.69
2019-05-06T07:01:33.030Z,56.50
2019-05-06T07:04:12.996Z,55.98
2019-05-06T07:06:45.912Z,55.66
2019-05-06T07:09:16.226Z,55.14
2019-05-06T07:11:46.799Z,55.07
2019-05-06T07:14:22.619Z,55.00
2019-05-06T07:16:54.198Z,54.56
2019-05-06T07:19:33.022Z,53.90
2019-05-06T07:22:06.656Z,54.00
2019-05-06T07:24:35.548Z,52.92
2019-05-06T07:27:12.528Z,51.90
2019-05-06T07:29:48.065Z,49.98
2019-05-06T07:32:16.210Z,47.78
2019-05-06T07:34:46.533Z,45.02
2019-05-06T07:37:18.085Z,43.21
2019-05-06T07:39:48.484Z,37.78
2019-05-06T07:42:27.761Z,31.98
2019-05-06T07:45:12.497Z,28.75
2019-05-06T07:47:55.478Z,25.54
2019-05-06T07:50:25.860Z,22.62
2019-05-06T07:53:09.495Z,21.41
2019-05-06T07:55:42.240Z,20.35
2019-05-06T07:58:13.802Z,19.59
2019-05-06T08:00:44.557Z,18.89
2019-05-06T08:03:15.230Z,18.29
2019-05-06T08:05:56.872Z,19.67
2019-05-06T08:08:18.138Z,19.41
2019-05-06T08:10:48.650Z,18.58
2019-05-06T08:13:19.229Z,17.05
2019-05-06T08:15:49.841Z,16.99
2019-05-06T08:18:21.936Z,16.42
2019-05-06T08:20:52.714Z,15.94
2019-05-06T08:23:32.665Z,15.66
2019-05-06T08:26:12.142Z,14.94
2019-05-06T08:28:41.056Z,21.65
2019-05-06T08:31:08.438Z,21.65
2019-05-06T08:33:39.040Z,24.98
2019-05-06T08:36:14.910Z,21.76
2019-05-06T08:38:57.761Z,21.08
2019-05-06T08:41:28.566Z,18.06
2019-05-06T08:44:02.385Z,16.71
2019-05-06T08:46:32.969Z,15.89
2019-05-06T08:49:04.795Z,19.34
2019-05-06T08:51:53.071Z,23.63
2019-05-06T08:54:32.348Z,25.19
2019-05-06T08:57:02.781Z,23.24
2019-05-06T08:59:33.389Z,26.37
2019-05-06T09:02:04.699Z,29.55
2019-05-06T09:04:35.092Z,31.08
2019-05-06T09:07:05.696Z,30.78
2019-05-06T09:09:36.041Z,30.36
2019-05-06T09:12:06.668Z,31.31
2019-05-06T09:14:37.364Z,31.80
2019-05-06T09:17:08.224Z,30.90
2019-05-06T09:19:38.610Z,30.39
2019-05-06T09:22:09.298Z,23.89
2019-05-06T09:24:39.976Z,21.75
2019-05-06T09:27:18.941Z,21.50
2019-05-06T09:29:52.169Z,21.63
2019-05-06T09:32:35.635Z,24.48
2019-05-06T09:35:03.608Z,24.48
2019-05-06T09:37:35.173Z,26.18
2019-05-06T09:40:06.198Z,28.36
2019-05-06T09:42:36.889Z,30.74
2019-05-06T09:45:07.584Z,31.53
2019-05-06T09:48:12.814Z,32.31
2019-05-06T09:50:46.683Z,33.26
2019-05-06T09:53:25.503Z,35.33
2019-05-06T09:56:13.600Z,38.57
2019-05-06T09:58:44.754Z,41.51
2019-05-06T10:01:16.015Z,43.38
2019-05-06T10:03:46.709Z,44.54
2019-05-06T10:06:17.174Z,45.49
2019-05-06T10:08:48.096Z,46.40
2019-05-06T10:11:18.489Z,46.83
2019-05-06T10:13:48.994Z,47.32
2019-05-06T10:16:21.242Z,47.32
2019-05-06T10:18:54.277Z,47.20
2019-05-06T10:21:26.213Z,46.84
2019-05-06T10:23:56.479Z,46.23
2019-05-06T10:26:29.810Z,46.05
2019-05-06T10:29:22.219Z,45.28
2019-05-06T10:32:05.494Z,44.27
2019-05-06T10:34:37.048Z,43.64
2019-05-06T10:37:33.549Z,42.82
2019-05-06T10:40:15.556Z,42.82
2019-05-06T10:42:52.301Z,42.89
2019-05-06T10:45:33.919Z,43.22
2019-05-06T10:48:04.514Z,43.60
2019-05-06T10:50:39.500Z,44.93
2019-05-06T10:53:18.773Z,46.53
2019-05-06T10:55:53.661Z,49.78
2019-05-06T10:58:24.094Z,51.71
2019-05-06T11:01:09.007Z,52.99
2019-05-06T11:03:39.343Z,52.83
2019-05-06T11:06:13.138Z,53.62
2019-05-06T11:08:43.093Z,53.15
2019-05-06T11:11:20.113Z,52.26
2019-05-06T11:13:46.687Z,50.25
2019-05-06T11:16:19.310Z,48.73
2019-05-06T11:18:49.981Z,47.44
2019-05-06T11:21:22.910Z,46.72
2019-05-06T11:23:54.034Z,45.92
2019-05-06T11:26:25.791Z,44.06
2019-05-06T11:29:00.015Z,43.47
2019-05-06T11:31:43.250Z,43.36
2019-05-06T11:34:28.253Z,42.86
2019-05-06T11:37:16.430Z,43.06
2019-05-06T11:39:46.746Z,42.80
2019-05-06T11:42:27.563Z,42.02
2019-05-06T11:44:52.900Z,41.20
2019-05-06T11:47:23.480Z,40.97
2019-05-06T11:49:56.599Z,40.10
2019-05-06T11:52:26.969Z,38.71
2019-05-06T11:54:59.477Z,37.94
2019-05-06T11:57:29.945Z,37.06
2019-05-06T12:00:02.960Z,36.13
2019-05-06T12:02:33.070Z,36.75
2019-05-06T12:05:04.584Z,36.38
2019-05-06T12:07:35.078Z,36.38
2019-05-06T12:10:06.868Z,36.60
2019-05-06T12:12:37.213Z,36.67
2019-05-06T12:15:09.167Z,36.76
2019-05-06T12:17:41.986Z,36.55
2019-05-06T12:20:14.352Z,35.67
2019-05-06T12:22:45.246Z,34.35
2019-05-06T12:25:17.460Z,34.27
2019-05-06T12:27:48.075Z,33.56
2019-05-06T12:30:23.172Z,34.09
2019-05-06T12:33:13.044Z,34.22
2019-05-06T12:35:47.333Z,34.51
2019-05-06T12:38:30.319Z,35.15
2019-05-06T12:40:59.979Z,34.82
2019-05-06T12:43:40.042Z,36.26
2019-05-06T12:46:23.941Z,36.76
2019-05-06T12:48:54.535Z,37.26
2019-05-06T12:51:24.850Z,37.38
2019-05-06T12:53:55.170Z,36.89
2019-05-06T12:56:25.950Z,37.99
2019-05-06T12:58:56.561Z,38.59
2019-05-06T13:01:26.901Z,39.41
2019-05-06T13:03:57.222Z,39.20
2019-05-06T13:06:28.857Z,39.17
2019-05-06T13:09:04.076Z,39.80
2019-05-06T13:11:33.345Z,39.80
2019-05-06T13:14:04.412Z,39.89
2019-05-06T13:16:36.106Z,39.31
2019-05-06T13:19:07.436Z,39.06
2019-05-06T13:21:38.179Z,38.21
2019-05-06T13:24:09.564Z,37.61
2019-05-06T13:26:40.410Z,37.63
2019-05-06T13:29:16.802Z,37.55
2019-05-06T13:31:47.643Z,37.87
2019-05-06T13:34:20.532Z,38.35
2019-05-06T13:36:53.443Z,38.70
2019-05-06T13:39:24.047Z,38.67
2019-05-06T13:41:54.873Z,38.85
2019-05-06T13:44:26.270Z,39.41
2019-05-06T13:46:56.558Z,40.14
2019-05-06T13:49:49.184Z,42.02
2019-05-06T13:52:23.116Z,42.02
2019-05-06T13:54:53.721Z,42.71
2019-05-06T13:57:25.315Z,43.14
2019-05-06T13:59:55.942Z,43.77
2019-05-06T14:02:35.861Z,44.50
2019-05-06T14:05:06.795Z,44.82
2019-05-06T14:07:37.231Z,45.52
2019-05-06T14:10:07.964Z,45.89
2019-05-06T14:12:38.880Z,46.09
2019-05-06T14:15:09.343Z,45.99
2019-05-06T14:17:42.180Z,45.93
2019-05-06T14:20:12.636Z,45.89
2019-05-06T14:22:43.878Z,45.43
2019-05-06T14:25:36.858Z,45.05
2019-05-06T14:28:21.761Z,44.74
2019-05-06T14:30:58.915Z,44.63
2019-05-06T14:33:29.514Z,43.90
2019-05-06T14:36:00.199Z,44.21
2019-05-06T14:38:32.268Z,43.82
2019-05-06T14:41:26.786Z,43.54
2019-05-06T14:43:55.114Z,43.58
2019-05-06T14:46:27.344Z,43.88
2019-05-06T14:48:57.676Z,44.24
2019-05-06T14:51:28.199Z,44.28
2019-05-06T14:53:58.586Z,44.68
2019-05-06T14:56:44.564Z,45.64
2019-05-06T14:59:14.903Z,46.79
2019-05-06T15:01:45.834Z,47.76
2019-05-06T15:04:16.454Z,50.61
2019-05-06T15:06:47.177Z,53.72
2019-05-06T15:09:17.786Z,56.71
2019-05-06T15:11:48.204Z,58.42
2019-05-06T15:14:18.699Z,58.77
2019-05-06T15:16:49.047Z,59.75
2019-05-06T15:19:19.385Z,59.61
2019-05-06T15:21:52.876Z,58.75
2019-05-06T15:24:24.421Z,58.86
2019-05-06T15:26:56.767Z,58.66
2019-05-06T15:29:27.081Z,58.91
2019-05-06T15:32:13.030Z,59.00
2019-05-06T15:34:57.844Z,59.95
2019-05-06T15:37:36.867Z,61.06
2019-05-06T15:40:09.367Z,62.05
2019-05-06T15:42:39.631Z,63.08
2019-05-06T15:45:12.618Z,64.03
2019-05-06T15:47:43.052Z,64.42
2019-05-06T15:50:13.713Z,65.79
2019-05-06T15:52:43.997Z,66.56
2019-05-06T15:55:15.063Z,66.93
2019-05-06T15:57:45.667Z,67.58
2019-05-06T16:00:18.367Z,67.58
2019-05-06T16:02:48.963Z,68.50
2019-05-06T16:05:25.143Z,68.50
2019-05-06T16:07:52.873Z,68.27
2019-05-06T16:10:26.051Z,68.68
2019-05-06T16:12:58.824Z,67.78
2019-05-06T16:15:29.311Z,67.20
2019-05-06T16:18:02.428Z,66.47
2019-05-06T16:20:33.235Z,67.25
2019-05-06T16:23:16.769Z,66.58
2019-05-06T16:25:48.526Z,66.18
2019-05-06T16:28:18.925Z,66.83
2019-05-06T16:30:49.749Z,67.29
2019-05-06T16:33:22.068Z,67.18
2019-05-06T16:35:53.935Z,66.32
2019-05-06T16:38:24.311Z,66.62
2019-05-06T16:41:09.472Z,67.57
2019-05-06T16:43:26.979Z,68.15
2019-05-06T16:45:57.548Z,68.10
2019-05-06T16:48:28.135Z,68.19
2019-05-06T16:50:58.820Z,68.08
2019-05-06T16:53:32.372Z,67.91
2019-05-06T16:56:13.683Z,68.08
2019-05-06T16:58:52.509Z,67.87
2019-05-06T17:01:23.463Z,67.93
2019-05-06T17:04:03.446Z,67.58
2019-05-06T17:06:36.246Z,67.15
2019-05-06T17:09:19.947Z,66.67
2019-05-06T17:11:42.618Z,66.10
2019-05-06T17:14:13.059Z,66.00
2019-05-06T17:16:43.354Z,65.79
2019-05-06T17:19:13.754Z,65.76
2019-05-06T17:21:44.069Z,65.83
2019-05-06T17:24:14.433Z,65.75
2019-05-06T17:26:46.829Z,65.94
2019-05-06T17:29:42.817Z,66.16
2019-05-06T17:32:22.158Z,66.29
2019-05-06T17:34:57.179Z,66.47
2019-05-06T17:37:43.356Z,64.86
2019-05-06T17:40:15.807Z,65.86
2019-05-06T17:42:46.138Z,65.76
2019-05-06T17:45:36.091Z,66.30
2019-05-06T17:48:20.321Z,66.21
2019-05-06T17:51:10.287Z,65.95
2019-05-06T17:53:42.733Z,63.94
2019-05-06T17:56:13.432Z,63.51
2019-05-06T17:58:43.876Z,63.06
2019-05-06T18:01:15.888Z,63.10
2019-05-06T18:03:46.284Z,63.21
2019-05-06T18:06:17.940Z,63.26
2019-05-06T18:08:49.383Z,63.35
2019-05-06T18:11:22.269Z,63.49
2019-05-06T18:13:52.433Z,63.74
2019-05-06T18:16:24.216Z,63.91
2019-05-06T18:18:54.770Z,64.21
2019-05-06T18:21:25.127Z,64.45
2019-05-06T18:23:55.471Z,64.67
2019-05-06T18:26:25.808Z,64.95
2019-05-06T18:28:58.346Z,65.32
2019-05-06T18:31:28.312Z,66.05
2019-05-06T18:33:58.626Z,66.32
2019-05-06T18:36:28.948Z,66.92
2019-05-06T18:38:59.518Z,67.61
2019-05-06T18:41:29.821Z,67.95
2019-05-06T18:44:00.569Z,67.89
2019-05-06T18:46:32.359Z,67.89
2019-05-06T18:49:03.409Z,68.90
2019-05-06T18:51:33.694Z,68.96
2019-05-06T18:54:04.221Z,69.07
2019-05-06T18:56:34.507Z,68.99
2019-05-06T18:59:06.273Z,69.25
2019-05-06T19:01:36.797Z,69.12
2019-05-06T19:04:26.323Z,69.17
2019-05-06T19:07:09.232Z,69.57
2019-05-06T19:09:52.668Z,69.37
2019-05-06T19:12:31.745Z,69.38
2019-05-06T19:14:55.285Z,69.38
2019-05-06T19:17:25.942Z,69.60
2019-05-06T19:19:56.275Z,69.75
2019-05-06T19:22:27.827Z,69.79
2019-05-06T19:24:58.056Z,69.68
2019-05-06T19:27:28.582Z,69.57
2019-05-06T19:29:58.878Z,69.18
2019-05-06T19:32:34.960Z,68.85
2019-05-06T19:35:03.015Z,68.85
2019-05-06T19:37:33.576Z,68.99
2019-05-06T19:40:04.022Z,68.99
2019-05-06T19:42:46.322Z,68.88
2019-05-06T19:45:07.275Z,68.54
2019-05-06T19:47:37.738Z,68.07
2019-05-06T19:50:08.817Z,67.82
2019-05-06T19:52:42.198Z,67.54
2019-05-06T19:55:12.486Z,67.28
2019-05-06T19:57:43.169Z,66.90
2019-05-06T20:00:14.171Z,66.62
2019-05-06T20:02:44.600Z,66.38
2019-05-06T20:05:33.945Z,66.40
2019-05-06T20:08:32.628Z,66.67
2019-05-06T20:11:22.818Z,66.80
2019-05-06T20:13:53.162Z,66.80
2019-05-06T20:16:23.463Z,66.97
2019-05-06T20:18:53.816Z,66.68
2019-05-06T20:21:24.318Z,66.60
2019-05-06T20:23:54.656Z,66.20
2019-05-06T20:26:25.522Z,65.99
2019-05-06T20:28:55.899Z,66.05
2019-05-06T20:31:28.535Z,65.87
2019-05-06T20:33:59.255Z,65.80
2019-05-06T20:36:29.964Z,65.85
2019-05-06T20:39:02.530Z,65.96
2019-05-06T20:41:34.872Z,66.09
2019-05-06T20:44:05.382Z,65.93
2019-05-06T20:46:37.477Z,65.79
2019-05-06T20:49:07.861Z,65.58
2019-05-06T20:51:39.081Z,65.46
2019-05-06T20:54:09.373Z,65.24
2019-05-06T20:56:42.011Z,65.16
2019-05-06T20:59:12.285Z,65.00
2019-05-06T21:01:42.681Z,64.91
2019-05-06T21:06:56.372Z,64.40
2019-05-06T21:09:26.717Z,64.19
2019-05-06T21:11:57.852Z,63.76
2019-05-06T21:14:28.245Z,63.66
2019-05-06T21:17:02.866Z,63.38
2019-05-06T21:19:33.354Z,63.44
2019-05-06T21:22:03.588Z,63.27
2019-05-06T21:24:36.069Z,62.66
2019-05-06T21:27:06.096Z,62.39
2019-05-06T21:29:36.544Z,62.37
2019-05-06T21:32:06.845Z,62.00
2019-05-06T21:34:37.419Z,61.68
2019-05-06T21:37:07.942Z,61.77
2019-05-06T21:39:38.609Z,61.79
2019-05-06T21:42:12.213Z,61.82
2019-05-06T21:44:42.974Z,61.55
2019-05-06T21:47:13.299Z,61.54
2019-05-06T21:49:43.903Z,61.46
2019-05-06T21:52:14.273Z,61.30
2019-05-06T21:54:44.670Z,61.22
2019-05-06T21:57:14.991Z,61.29
2019-05-06T21:59:45.465Z,61.14
2019-05-06T22:02:17.559Z,61.21
2019-05-06T22:04:48.230Z,61.20
2019-05-06T22:07:18.712Z,61.24
2019-05-06T22:09:49.053Z,61.23
2019-05-06T22:12:19.736Z,61.20
2019-05-06T22:14:50.229Z,61.22
2019-05-06T22:17:22.519Z,61.08
2019-05-06T22:19:53.519Z,61.13
2019-05-06T22:22:26.259Z,61.21
2019-05-06T22:24:58.134Z,61.38
2019-05-06T22:27:29.551Z,61.59
2019-05-06T22:29:59.874Z,61.74
2019-05-06T22:32:33.083Z,61.96
2019-05-06T22:35:04.699Z,62.11
2019-05-06T22:37:36.232Z,62.17
2019-05-06T22:40:06.810Z,62.30
2019-05-06T22:42:37.101Z,62.42
2019-05-06T22:45:07.852Z,62.71
2019-05-06T22:47:38.388Z,62.66
2019-05-06T22:50:08.889Z,62.75
2019-05-06T22:52:39.148Z,62.95
2019-05-06T22:55:09.577Z,63.36
2019-05-06T22:57:42.225Z,63.53
2019-05-06T23:00:18.488Z,63.58
2019-05-06T23:02:56.580Z,63.92
2019-05-06T23:05:26.944Z,63.87
2019-05-06T23:07:57.241Z,64.04
2019-05-06T23:10:27.526Z,63.94
2019-05-06T23:12:58.091Z,64.24
2019-05-06T23:15:34.015Z,64.51
2019-05-06T23:18:02.433Z,64.55
2019-05-06T23:20:33.905Z,64.59
2019-05-06T23:23:05.769Z,64.61
2019-05-06T23:25:36.092Z,64.55
2019-05-06T23:28:06.467Z,64.50
2019-05-06T23:30:37.044Z,64.44
2019-05-06T23:33:08.564Z,64.34
2019-05-06T23:35:38.838Z,64.46
2019-05-06T23:38:45.536Z,64.55
2019-05-06T23:41:52.873Z,64.69
2019-05-06T23:44:58.447Z,64.85
2019-05-06T23:48:07.445Z,64.80
2019-05-06T23:51:13.215Z,64.92
2019-05-06T23:54:19.112Z,65.08
2019-05-06T23:56:48.743Z,65.11
2019-05-06T23:59:19.557Z,65.04
